Terminal Aerodrome Forecast
Issued by NWS

Home | Current Version | Previous Version | Text Only | Print | Product List | Glossary On
Versions: 1 2 3 4 5 6 7 8 9 10 11 12 13 14 15 16 17
720
FTUS43 KEAX 171733
TAFSTJ
TAF
KSTJ 171733Z 1718/1818 10010G24KT P6SM FEW200
     FM180700 07014KT P6SM VCSH BKN025
     FM180900 30015G25KT P6SM OVC010
     FM181500 30017G27KT P6SM OVC020=

USA.gov is the U.S. government's official web portal to all federal, state and local government web resources and services.